sensor_id;sensor_type;location;lat;lon;timestamp;P1;durP1;ratioP1;P2;durP2;ratioP2
3735;SDS011;1883;48.202;16.310;2024-02-14T00:00:18;6.17;;;2.30;;
3735;SDS011;1883;48.202;16.310;2024-02-14T00:02:46;10.90;;;2.60;;
3735;SDS011;1883;48.202;16.310;2024-02-14T00:05:18;17.63;;;2.73;;
3735;SDS011;1883;48.202;16.310;2024-02-14T00:07:44;23.30;;;3.17;;
3735;SDS011;1883;48.202;16.310;2024-02-14T00:10:12;16.80;;;2.13;;
3735;SDS011;1883;48.202;16.310;2024-02-14T00:12:39;10.37;;;2.50;;
3735;SDS011;1883;48.202;16.310;2024-02-14T00:15:07;11.93;;;2.60;;
3735;SDS011;1883;48.202;16.310;2024-02-14T00:17:37;10.37;;;2.50;;
3735;SDS011;1883;48.202;16.310;2024-02-14T00:20:04;9.13;;;2.47;;
3735;SDS011;1883;48.202;16.310;2024-02-14T00:22:36;16.10;;;2.53;;
3735;SDS011;1883;48.202;16.310;2024-02-14T00:25:07;15.27;;;3.40;;
3735;SDS011;1883;48.202;16.310;2024-02-14T00:27:36;11.90;;;2.10;;
3735;SDS011;1883;48.202;16.310;2024-02-14T00:30:10;22.70;;;2.77;;
3735;SDS011;1883;48.202;16.310;2024-02-14T00:32:39;9.10;;;3.17;;
3735;SDS011;1883;48.202;16.310;2024-02-14T00:35:09;8.07;;;3.07;;
3735;SDS011;1883;48.202;16.310;2024-02-14T00:37:40;7.93;;;2.63;;
3735;SDS011;1883;48.202;16.310;2024-02-14T00:40:08;12.70;;;3.10;;
3735;SDS011;1883;48.202;16.310;2024-02-14T00:42:37;11.30;;;3.00;;
3735;SDS011;1883;48.202;16.310;2024-02-14T00:45:07;15.60;;;3.70;;
3735;SDS011;1883;48.202;16.310;2024-02-14T00:47:34;13.13;;;3.83;;
3735;SDS011;1883;48.202;16.310;2024-02-14T00:50:02;10.50;;;2.93;;
3735;SDS011;1883;48.202;16.310;2024-02-14T00:52:29;8.20;;;2.60;;
3735;SDS011;1883;48.202;16.310;2024-02-14T00:55:08;15.73;;;2.50;;
3735;SDS011;1883;48.202;16.310;2024-02-14T00:57:37;11.03;;;2.93;;
3735;SDS011;1883;48.202;16.310;2024-02-14T01:00:06;10.67;;;2.73;;
3735;SDS011;1883;48.202;16.310;2024-02-14T01:02:34;15.40;;;2.53;;
3735;SDS011;1883;48.202;16.310;2024-02-14T01:05:03;7.03;;;2.00;;
3735;SDS011;1883;48.202;16.310;2024-02-14T01:07:31;9.83;;;2.57;;
3735;SDS011;1883;48.202;16.310;2024-02-14T01:09:58;12.43;;;2.43;;
3735;SDS011;1883;48.202;16.310;2024-02-14T01:12:27;10.00;;;3.07;;
3735;SDS011;1883;48.202;16.310;2024-02-14T01:14:55;19.80;;;2.90;;
3735;SDS011;1883;48.202;16.310;2024-02-14T01:17:24;21.60;;;3.00;;
3735;SDS011;1883;48.202;16.310;2024-02-14T01:19:51;12.00;;;2.60;;
3735;SDS011;1883;48.202;16.310;2024-02-14T01:22:18;15.23;;;3.00;;
3735;SDS011;1883;48.202;16.310;2024-02-14T01:24:46;9.03;;;2.83;;
3735;SDS011;1883;48.202;16.310;2024-02-14T01:27:13;9.37;;;2.93;;
3735;SDS011;1883;48.202;16.310;2024-02-14T01:29:42;10.77;;;2.87;;
3735;SDS011;1883;48.202;16.310;2024-02-14T01:32:09;8.53;;;2.97;;
3735;SDS011;1883;48.202;16.310;2024-02-14T01:34:37;16.17;;;3.30;;
3735;SDS011;1883;48.202;16.310;2024-02-14T01:37:04;13.77;;;3.33;;
3735;SDS011;1883;48.202;16.310;2024-02-14T01:39:35;10.13;;;2.80;;
3735;SDS011;1883;48.202;16.310;2024-02-14T01:42:03;10.10;;;3.33;;
3735;SDS011;1883;48.202;16.310;2024-02-14T01:44:32;11.43;;;3.30;;
3735;SDS011;1883;48.202;16.310;2024-02-14T01:47:04;10.83;;;2.63;;
3735;SDS011;1883;48.202;16.310;2024-02-14T01:49:32;8.13;;;2.70;;
3735;SDS011;1883;48.202;16.310;2024-02-14T01:52:03;11.13;;;3.40;;
3735;SDS011;1883;48.202;16.310;2024-02-14T01:54:31;17.40;;;3.70;;
3735;SDS011;1883;48.202;16.310;2024-02-14T01:56:59;14.27;;;3.50;;
3735;SDS011;1883;48.202;16.310;2024-02-14T01:59:27;15.90;;;3.77;;
3735;SDS011;1883;48.202;16.310;2024-02-14T02:01:55;12.70;;;3.70;;
3735;SDS011;1883;48.202;16.310;2024-02-14T02:04:24;16.40;;;4.07;;
3735;SDS011;1883;48.202;16.310;2024-02-14T02:06:51;15.27;;;4.20;;
3735;SDS011;1883;48.202;16.310;2024-02-14T02:09:21;14.30;;;3.90;;
3735;SDS011;1883;48.202;16.310;2024-02-14T02:11:49;20.50;;;4.73;;
3735;SDS011;1883;48.202;16.310;2024-02-14T02:14:21;15.60;;;3.87;;
3735;SDS011;1883;48.202;16.310;2024-02-14T02:16:48;15.80;;;3.77;;
3735;SDS011;1883;48.202;16.310;2024-02-14T02:19:15;12.30;;;3.50;;
3735;SDS011;1883;48.202;16.310;2024-02-14T02:21:43;13.73;;;3.60;;
3735;SDS011;1883;48.202;16.310;2024-02-14T02:24:12;20.33;;;3.90;;
3735;SDS011;1883;48.202;16.310;2024-02-14T02:26:39;11.77;;;4.10;;
3735;SDS011;1883;48.202;16.310;2024-02-14T02:29:06;11.03;;;3.60;;
3735;SDS011;1883;48.202;16.310;2024-02-14T02:31:33;24.03;;;4.00;;
3735;SDS011;1883;48.202;16.310;2024-02-14T02:34:00;12.13;;;4.47;;
3735;SDS011;1883;48.202;16.310;2024-02-14T02:36:27;14.80;;;3.87;;
3735;SDS011;1883;48.202;16.310;2024-02-14T02:38:55;13.87;;;4.90;;
3735;SDS011;1883;48.202;16.310;2024-02-14T02:41:24;13.30;;;4.13;;
3735;SDS011;1883;48.202;16.310;2024-02-14T02:43:52;14.93;;;4.37;;
3735;SDS011;1883;48.202;16.310;2024-02-14T02:46:19;19.80;;;4.83;;
3735;SDS011;1883;48.202;16.310;2024-02-14T02:48:47;17.97;;;4.97;;
3735;SDS011;1883;48.202;16.310;2024-02-14T02:51:15;26.60;;;5.63;;
3735;SDS011;1883;48.202;16.310;2024-02-14T02:53:43;14.93;;;4.77;;
3735;SDS011;1883;48.202;16.310;2024-02-14T02:56:10;22.33;;;5.57;;
3735;SDS011;1883;48.202;16.310;2024-02-14T02:58:41;13.50;;;4.70;;
3735;SDS011;1883;48.202;16.310;2024-02-14T03:01:09;11.40;;;4.10;;
3735;SDS011;1883;48.202;16.310;2024-02-14T03:03:37;11.33;;;4.23;;
3735;SDS011;1883;48.202;16.310;2024-02-14T03:06:04;12.23;;;3.80;;
3735;SDS011;1883;48.202;16.310;2024-02-14T03:08:31;11.67;;;4.50;;
3735;SDS011;1883;48.202;16.310;2024-02-14T03:11:02;14.30;;;5.00;;
3735;SDS011;1883;48.202;16.310;2024-02-14T03:13:30;14.90;;;5.00;;
3735;SDS011;1883;48.202;16.310;2024-02-14T03:15:59;13.33;;;4.73;;
3735;SDS011;1883;48.202;16.310;2024-02-14T03:18:26;20.20;;;4.87;;
3735;SDS011;1883;48.202;16.310;2024-02-14T03:20:53;18.90;;;5.20;;
3735;SDS011;1883;48.202;16.310;2024-02-14T03:23:20;14.23;;;5.47;;
3735;SDS011;1883;48.202;16.310;2024-02-14T03:25:53;13.50;;;5.20;;
3735;SDS011;1883;48.202;16.310;2024-02-14T03:28:20;11.60;;;5.00;;
3735;SDS011;1883;48.202;16.310;2024-02-14T03:30:47;20.30;;;5.03;;
3735;SDS011;1883;48.202;16.310;2024-02-14T03:33:15;15.30;;;5.20;;
3735;SDS011;1883;48.202;16.310;2024-02-14T03:35:44;18.87;;;6.13;;
3735;SDS011;1883;48.202;16.310;2024-02-14T03:38:11;13.37;;;5.00;;
3735;SDS011;1883;48.202;16.310;2024-02-14T03:40:39;15.80;;;5.27;;
3735;SDS011;1883;48.202;16.310;2024-02-14T03:43:07;27.90;;;5.53;;
3735;SDS011;1883;48.202;16.310;2024-02-14T03:45:36;17.63;;;5.33;;
3735;SDS011;1883;48.202;16.310;2024-02-14T03:48:03;16.33;;;6.13;;
3735;SDS011;1883;48.202;16.310;2024-02-14T03:50:33;17.50;;;6.17;;
3735;SDS011;1883;48.202;16.310;2024-02-14T03:53:00;20.03;;;6.07;;
3735;SDS011;1883;48.202;16.310;2024-02-14T03:55:31;13.07;;;5.23;;
3735;SDS011;1883;48.202;16.310;2024-02-14T03:58:01;20.60;;;5.67;;
3735;SDS011;1883;48.202;16.310;2024-02-14T04:00:31;17.50;;;5.43;;
3735;SDS011;1883;48.202;16.310;2024-02-14T04:03:00;16.93;;;5.80;;
3735;SDS011;1883;48.202;16.310;2024-02-14T04:05:27;16.60;;;5.47;;
3735;SDS011;1883;48.202;16.310;2024-02-14T04:07:56;16.67;;;5.90;;
3735;SDS011;1883;48.202;16.310;2024-02-14T04:10:23;11.77;;;5.13;;
3735;SDS011;1883;48.202;16.310;2024-02-14T04:12:50;12.50;;;5.20;;
3735;SDS011;1883;48.202;16.310;2024-02-14T04:15:17;21.43;;;6.33;;
3735;SDS011;1883;48.202;16.310;2024-02-14T04:17:46;12.43;;;4.90;;
3735;SDS011;1883;48.202;16.310;2024-02-14T04:20:13;13.90;;;5.30;;
3735;SDS011;1883;48.202;16.310;2024-02-14T04:22:40;17.30;;;5.50;;
3735;SDS011;1883;48.202;16.310;2024-02-14T04:25:10;21.00;;;6.00;;
3735;SDS011;1883;48.202;16.310;2024-02-14T04:27:37;12.20;;;5.33;;
3735;SDS011;1883;48.202;16.310;2024-02-14T04:30:14;11.70;;;4.03;;
3735;SDS011;1883;48.202;16.310;2024-02-14T04:32:42;13.73;;;5.07;;
3735;SDS011;1883;48.202;16.310;2024-02-14T04:35:09;12.60;;;5.63;;
3735;SDS011;1883;48.202;16.310;2024-02-14T04:37:36;13.77;;;5.17;;
3735;SDS011;1883;48.202;16.310;2024-02-14T04:40:05;19.07;;;5.00;;
3735;SDS011;1883;48.202;16.310;2024-02-14T04:42:34;19.57;;;5.57;;
3735;SDS011;1883;48.202;16.310;2024-02-14T04:45:01;18.83;;;5.20;;
3735;SDS011;1883;48.202;16.310;2024-02-14T04:47:29;25.17;;;4.97;;
3735;SDS011;1883;48.202;16.310;2024-02-14T04:49:57;9.50;;;4.10;;
3735;SDS011;1883;48.202;16.310;2024-02-14T04:52:25;20.43;;;5.70;;
3735;SDS011;1883;48.202;16.310;2024-02-14T04:54:55;18.40;;;5.00;;
3735;SDS011;1883;48.202;16.310;2024-02-14T04:57:22;13.67;;;5.10;;
3735;SDS011;1883;48.202;16.310;2024-02-14T04:59:50;15.27;;;5.53;;
3735;SDS011;1883;48.202;16.310;2024-02-14T05:02:20;18.57;;;4.30;;
3735;SDS011;1883;48.202;16.310;2024-02-14T05:04:47;18.20;;;4.80;;
3735;SDS011;1883;48.202;16.310;2024-02-14T05:07:14;15.70;;;5.00;;
3735;SDS011;1883;48.202;16.310;2024-02-14T05:09:43;11.40;;;4.73;;
3735;SDS011;1883;48.202;16.310;2024-02-14T05:12:11;16.67;;;4.87;;
3735;SDS011;1883;48.202;16.310;2024-02-14T05:14:38;18.13;;;4.63;;
3735;SDS011;1883;48.202;16.310;2024-02-14T05:17:07;15.20;;;5.17;;
3735;SDS011;1883;48.202;16.310;2024-02-14T05:19:34;14.13;;;4.33;;
3735;SDS011;1883;48.202;16.310;2024-02-14T05:22:03;18.43;;;5.10;;
3735;SDS011;1883;48.202;16.310;2024-02-14T05:24:32;14.97;;;5.00;;
3735;SDS011;1883;48.202;16.310;2024-02-14T05:27:03;10.20;;;4.13;;
3735;SDS011;1883;48.202;16.310;2024-02-14T05:29:31;14.70;;;4.47;;
3735;SDS011;1883;48.202;16.310;2024-02-14T05:31:59;17.10;;;4.90;;
3735;SDS011;1883;48.202;16.310;2024-02-14T05:34:32;23.63;;;5.30;;
3735;SDS011;1883;48.202;16.310;2024-02-14T05:36:59;12.60;;;4.53;;
3735;SDS011;1883;48.202;16.310;2024-02-14T05:39:35;17.40;;;5.37;;
3735;SDS011;1883;48.202;16.310;2024-02-14T05:42:07;15.13;;;5.80;;
3735;SDS011;1883;48.202;16.310;2024-02-14T05:44:35;13.77;;;4.53;;
3735;SDS011;1883;48.202;16.310;2024-02-14T05:47:04;14.00;;;5.33;;
3735;SDS011;1883;48.202;16.310;2024-02-14T05:49:35;18.73;;;5.40;;
3735;SDS011;1883;48.202;16.310;2024-02-14T05:52:12;11.80;;;5.10;;
3735;SDS011;1883;48.202;16.310;2024-02-14T05:54:42;14.13;;;5.27;;
3735;SDS011;1883;48.202;16.310;2024-02-14T05:57:09;16.80;;;5.43;;
3735;SDS011;1883;48.202;16.310;2024-02-14T05:59:36;28.73;;;6.53;;
3735;SDS011;1883;48.202;16.310;2024-02-14T06:02:07;18.87;;;6.40;;
3735;SDS011;1883;48.202;16.310;2024-02-14T06:04:37;11.73;;;5.07;;
3735;SDS011;1883;48.202;16.310;2024-02-14T06:07:11;10.90;;;4.90;;
3735;SDS011;1883;48.202;16.310;2024-02-14T06:09:39;17.17;;;5.90;;
3735;SDS011;1883;48.202;16.310;2024-02-14T06:12:07;14.90;;;6.10;;
3735;SDS011;1883;48.202;16.310;2024-02-14T06:14:36;15.80;;;5.53;;
3735;SDS011;1883;48.202;16.310;2024-02-14T06:17:08;23.73;;;6.87;;
3735;SDS011;1883;48.202;16.310;2024-02-14T06:25:36;22.63;;;7.40;;
3735;SDS011;1883;48.202;16.310;2024-02-14T06:28:03;17.70;;;6.60;;
3735;SDS011;1883;48.202;16.310;2024-02-14T06:30:45;14.60;;;6.00;;
3735;SDS011;1883;48.202;16.310;2024-02-14T06:33:18;28.97;;;5.80;;
3735;SDS011;1883;48.202;16.310;2024-02-14T06:35:47;13.33;;;5.20;;
3735;SDS011;1883;48.202;16.310;2024-02-14T06:38:18;41.37;;;6.70;;
3735;SDS011;1883;48.202;16.310;2024-02-14T06:40:53;22.40;;;5.10;;
3735;SDS011;1883;48.202;16.310;2024-02-14T06:43:24;12.93;;;5.17;;
3735;SDS011;1883;48.202;16.310;2024-02-14T06:46:04;15.57;;;5.60;;
3735;SDS011;1883;48.202;16.310;2024-02-14T06:48:31;15.67;;;5.10;;
3735;SDS011;1883;48.202;16.310;2024-02-14T06:50:59;15.07;;;4.60;;
3735;SDS011;1883;48.202;16.310;2024-02-14T06:53:28;19.67;;;5.60;;
3735;SDS011;1883;48.202;16.310;2024-02-14T06:55:56;18.33;;;6.63;;
3735;SDS011;1883;48.202;16.310;2024-02-14T06:58:37;16.70;;;5.70;;
3735;SDS011;1883;48.202;16.310;2024-02-14T07:01:04;17.23;;;7.07;;
3735;SDS011;1883;48.202;16.310;2024-02-14T07:03:32;16.73;;;6.43;;
3735;SDS011;1883;48.202;16.310;2024-02-14T07:06:00;17.30;;;6.73;;
3735;SDS011;1883;48.202;16.310;2024-02-14T07:08:32;16.40;;;7.30;;
3735;SDS011;1883;48.202;16.310;2024-02-14T07:11:12;15.63;;;6.00;;
3735;SDS011;1883;48.202;16.310;2024-02-14T07:13:40;16.43;;;6.60;;
3735;SDS011;1883;48.202;16.310;2024-02-14T07:16:07;17.17;;;6.23;;
3735;SDS011;1883;48.202;16.310;2024-02-14T07:18:35;19.83;;;5.90;;
3735;SDS011;1883;48.202;16.310;2024-02-14T07:21:02;17.47;;;6.53;;
3735;SDS011;1883;48.202;16.310;2024-02-14T07:23:32;29.93;;;6.97;;
3735;SDS011;1883;48.202;16.310;2024-02-14T07:26:04;20.23;;;6.07;;
3735;SDS011;1883;48.202;16.310;2024-02-14T07:28:31;18.20;;;6.17;;
3735;SDS011;1883;48.202;16.310;2024-02-14T07:31:00;29.30;;;6.23;;
3735;SDS011;1883;48.202;16.310;2024-02-14T07:33:54;16.10;;;6.73;;
3735;SDS011;1883;48.202;16.310;2024-02-14T07:36:54;20.23;;;5.77;;
3735;SDS011;1883;48.202;16.310;2024-02-14T07:55:41;16.43;;;5.03;;
3735;SDS011;1883;48.202;16.310;2024-02-14T07:58:22;16.20;;;5.50;;
3735;SDS011;1883;48.202;16.310;2024-02-14T08:26:11;35.80;;;11.60;;
3735;SDS011;1883;48.202;16.310;2024-02-14T08:28:40;46.63;;;11.30;;
3735;SDS011;1883;48.202;16.310;2024-02-14T08:31:09;31.27;;;11.20;;
3735;SDS011;1883;48.202;16.310;2024-02-14T08:33:44;33.63;;;12.37;;
3735;SDS011;1883;48.202;16.310;2024-02-14T08:36:28;31.17;;;11.80;;
3735;SDS011;1883;48.202;16.310;2024-02-14T08:45:14;25.93;;;7.10;;
3735;SDS011;1883;48.202;16.310;2024-02-14T08:48:18;27.87;;;6.73;;
3735;SDS011;1883;48.202;16.310;2024-02-14T08:51:14;18.27;;;7.40;;
3735;SDS011;1883;48.202;16.310;2024-02-14T08:54:14;24.33;;;6.87;;
3735;SDS011;1883;48.202;16.310;2024-02-14T08:56:59;16.23;;;5.50;;
3735;SDS011;1883;48.202;16.310;2024-02-14T09:12:50;17.03;;;4.73;;
3735;SDS011;1883;48.202;16.310;2024-02-14T09:15:22;14.73;;;4.60;;
3735;SDS011;1883;48.202;16.310;2024-02-14T09:17:54;25.83;;;4.77;;
3735;SDS011;1883;48.202;16.310;2024-02-14T09:20:26;17.73;;;4.90;;
3735;SDS011;1883;48.202;16.310;2024-02-14T09:22:54;20.60;;;6.00;;
3735;SDS011;1883;48.202;16.310;2024-02-14T09:25:29;15.57;;;4.90;;
3735;SDS011;1883;48.202;16.310;2024-02-14T09:27:59;16.77;;;4.83;;
3735;SDS011;1883;48.202;16.310;2024-02-14T09:30:27;13.80;;;4.53;;
3735;SDS011;1883;48.202;16.310;2024-02-14T09:32:56;19.03;;;4.37;;
3735;SDS011;1883;48.202;16.310;2024-02-14T09:35:25;21.30;;;4.80;;
3735;SDS011;1883;48.202;16.310;2024-02-14T09:37:55;20.00;;;4.63;;
3735;SDS011;1883;48.202;16.310;2024-02-14T09:43:25;15.20;;;3.70;;
3735;SDS011;1883;48.202;16.310;2024-02-14T09:46:03;16.63;;;4.93;;
3735;SDS011;1883;48.202;16.310;2024-02-14T09:48:32;12.83;;;4.03;;
3735;SDS011;1883;48.202;16.310;2024-02-14T09:51:03;15.50;;;4.60;;
3735;SDS011;1883;48.202;16.310;2024-02-14T09:53:32;20.80;;;4.73;;
3735;SDS011;1883;48.202;16.310;2024-02-14T09:56:15;16.77;;;5.47;;
3735;SDS011;1883;48.202;16.310;2024-02-14T09:59:09;19.97;;;6.27;;
3735;SDS011;1883;48.202;16.310;2024-02-14T10:01:36;23.40;;;7.60;;
3735;SDS011;1883;48.202;16.310;2024-02-14T10:04:04;20.43;;;7.20;;
3735;SDS011;1883;48.202;16.310;2024-02-14T10:06:33;19.53;;;6.77;;
3735;SDS011;1883;48.202;16.310;2024-02-14T10:09:02;19.70;;;6.40;;
3735;SDS011;1883;48.202;16.310;2024-02-14T10:11:39;17.53;;;5.97;;
3735;SDS011;1883;48.202;16.310;2024-02-14T10:14:20;22.13;;;6.43;;
3735;SDS011;1883;48.202;16.310;2024-02-14T10:16:49;20.87;;;6.77;;
3735;SDS011;1883;48.202;16.310;2024-02-14T10:19:18;15.83;;;5.30;;
3735;SDS011;1883;48.202;16.310;2024-02-14T10:21:57;18.97;;;5.50;;
3735;SDS011;1883;48.202;16.310;2024-02-14T10:24:26;15.67;;;5.40;;
3735;SDS011;1883;48.202;16.310;2024-02-14T10:27:00;14.53;;;5.37;;
3735;SDS011;1883;48.202;16.310;2024-02-14T10:29:28;15.93;;;3.97;;
3735;SDS011;1883;48.202;16.310;2024-02-14T10:32:02;13.30;;;4.07;;
3735;SDS011;1883;48.202;16.310;2024-02-14T10:34:51;12.10;;;4.20;;
3735;SDS011;1883;48.202;16.310;2024-02-14T10:37:26;13.50;;;4.50;;
3735;SDS011;1883;48.202;16.310;2024-02-14T10:40:05;22.30;;;4.30;;
3735;SDS011;1883;48.202;16.310;2024-02-14T10:43:14;17.33;;;3.37;;
3735;SDS011;1883;48.202;16.310;2024-02-14T10:45:47;14.70;;;3.50;;
3735;SDS011;1883;48.202;16.310;2024-02-14T10:48:15;18.33;;;3.83;;
3735;SDS011;1883;48.202;16.310;2024-02-14T10:51:09;11.40;;;3.33;;
3735;SDS011;1883;48.202;16.310;2024-02-14T10:53:55;10.67;;;3.63;;
3735;SDS011;1883;48.202;16.310;2024-02-14T10:56:28;14.30;;;3.50;;
3735;SDS011;1883;48.202;16.310;2024-02-14T11:05:01;19.43;;;3.80;;
3735;SDS011;1883;48.202;16.310;2024-02-14T11:07:29;15.07;;;2.87;;
3735;SDS011;1883;48.202;16.310;2024-02-14T11:10:13;12.17;;;2.93;;
3735;SDS011;1883;48.202;16.310;2024-02-14T11:12:46;11.83;;;2.97;;
3735;SDS011;1883;48.202;16.310;2024-02-14T11:15:35;11.63;;;2.33;;
3735;SDS011;1883;48.202;16.310;2024-02-14T11:21:03;15.30;;;3.50;;
3735;SDS011;1883;48.202;16.310;2024-02-14T11:23:53;14.37;;;2.87;;
3735;SDS011;1883;48.202;16.310;2024-02-14T11:26:38;12.63;;;2.10;;
3735;SDS011;1883;48.202;16.310;2024-02-14T11:29:16;18.07;;;2.93;;
3735;SDS011;1883;48.202;16.310;2024-02-14T11:31:45;10.73;;;2.80;;
3735;SDS011;1883;48.202;16.310;2024-02-14T11:34:18;16.20;;;3.20;;
3735;SDS011;1883;48.202;16.310;2024-02-14T11:37:21;17.23;;;3.90;;
3735;SDS011;1883;48.202;16.310;2024-02-14T11:40:08;20.33;;;5.77;;
3735;SDS011;1883;48.202;16.310;2024-02-14T11:42:41;17.10;;;3.80;;
3735;SDS011;1883;48.202;16.310;2024-02-14T11:45:27;11.87;;;3.40;;
3735;SDS011;1883;48.202;16.310;2024-02-14T11:48:21;16.67;;;3.73;;
3735;SDS011;1883;48.202;16.310;2024-02-14T12:08:48;7.27;;;1.30;;
3735;SDS011;1883;48.202;16.310;2024-02-14T12:14:04;6.50;;;1.50;;
3735;SDS011;1883;48.202;16.310;2024-02-14T12:16:56;8.60;;;1.27;;
3735;SDS011;1883;48.202;16.310;2024-02-14T12:20:08;5.37;;;1.00;;
3735;SDS011;1883;48.202;16.310;2024-02-14T12:22:52;5.30;;;0.90;;
3735;SDS011;1883;48.202;16.310;2024-02-14T12:31:32;10.50;;;1.77;;
3735;SDS011;1883;48.202;16.310;2024-02-14T12:36:33;8.73;;;1.30;;
3735;SDS011;1883;48.202;16.310;2024-02-14T12:39:02;5.40;;;0.97;;
3735;SDS011;1883;48.202;16.310;2024-02-14T12:41:37;8.10;;;1.60;;
3735;SDS011;1883;48.202;16.310;2024-02-14T12:44:06;9.10;;;1.73;;
3735;SDS011;1883;48.202;16.310;2024-02-14T12:49:54;8.00;;;1.40;;
3735;SDS011;1883;48.202;16.310;2024-02-14T12:52:24;6.57;;;1.60;;
3735;SDS011;1883;48.202;16.310;2024-02-14T12:54:54;7.70;;;1.43;;
3735;SDS011;1883;48.202;16.310;2024-02-14T12:57:23;9.33;;;2.37;;
3735;SDS011;1883;48.202;16.310;2024-02-14T12:59:53;11.20;;;1.60;;
3735;SDS011;1883;48.202;16.310;2024-02-14T13:02:24;8.83;;;1.70;;
3735;SDS011;1883;48.202;16.310;2024-02-14T13:05:06;9.87;;;1.97;;
3735;SDS011;1883;48.202;16.310;2024-02-14T13:07:39;11.73;;;1.77;;
3735;SDS011;1883;48.202;16.310;2024-02-14T13:10:22;6.43;;;1.50;;
3735;SDS011;1883;48.202;16.310;2024-02-14T13:13:04;7.57;;;1.80;;
3735;SDS011;1883;48.202;16.310;2024-02-14T13:15:58;9.00;;;1.40;;
3735;SDS011;1883;48.202;16.310;2024-02-14T13:25:13;12.73;;;2.60;;
3735;SDS011;1883;48.202;16.310;2024-02-14T13:27:55;7.17;;;1.63;;
3735;SDS011;1883;48.202;16.310;2024-02-14T13:30:31;6.17;;;1.37;;
3735;SDS011;1883;48.202;16.310;2024-02-14T13:33:13;7.43;;;1.60;;
3735;SDS011;1883;48.202;16.310;2024-02-14T13:35:41;6.40;;;1.50;;
3735;SDS011;1883;48.202;16.310;2024-02-14T13:38:12;13.73;;;1.80;;
3735;SDS011;1883;48.202;16.310;2024-02-14T13:40:43;13.80;;;1.60;;
3735;SDS011;1883;48.202;16.310;2024-02-14T13:43:11;7.97;;;1.73;;
3735;SDS011;1883;48.202;16.310;2024-02-14T13:45:42;8.30;;;2.10;;
3735;SDS011;1883;48.202;16.310;2024-02-14T13:48:11;8.87;;;1.40;;
3735;SDS011;1883;48.202;16.310;2024-02-14T13:54:28;17.57;;;2.27;;
3735;SDS011;1883;48.202;16.310;2024-02-14T13:57:14;9.87;;;2.03;;
3735;SDS011;1883;48.202;16.310;2024-02-14T13:59:59;11.80;;;1.77;;
3735;SDS011;1883;48.202;16.310;2024-02-14T14:02:29;8.93;;;1.73;;
3735;SDS011;1883;48.202;16.310;2024-02-14T14:05:07;6.30;;;1.40;;
3735;SDS011;1883;48.202;16.310;2024-02-14T14:07:47;11.40;;;2.23;;
3735;SDS011;1883;48.202;16.310;2024-02-14T14:10:46;7.93;;;2.13;;
3735;SDS011;1883;48.202;16.310;2024-02-14T14:13:30;7.40;;;1.90;;
3735;SDS011;1883;48.202;16.310;2024-02-14T14:16:11;7.47;;;1.37;;
3735;SDS011;1883;48.202;16.310;2024-02-14T14:18:39;7.20;;;1.47;;
3735;SDS011;1883;48.202;16.310;2024-02-14T14:21:26;9.60;;;1.60;;
3735;SDS011;1883;48.202;16.310;2024-02-14T14:23:53;6.80;;;1.37;;
3735;SDS011;1883;48.202;16.310;2024-02-14T14:26:23;9.37;;;1.83;;
3735;SDS011;1883;48.202;16.310;2024-02-14T14:28:50;9.10;;;1.60;;
3735;SDS011;1883;48.202;16.310;2024-02-14T14:31:27;10.30;;;2.00;;
3735;SDS011;1883;48.202;16.310;2024-02-14T14:34:07;9.10;;;2.00;;
3735;SDS011;1883;48.202;16.310;2024-02-14T14:36:50;9.60;;;1.97;;
3735;SDS011;1883;48.202;16.310;2024-02-14T14:39:23;15.30;;;2.00;;
3735;SDS011;1883;48.202;16.310;2024-02-14T14:42:11;11.17;;;1.73;;
3735;SDS011;1883;48.202;16.310;2024-02-14T14:44:38;10.60;;;1.73;;
3735;SDS011;1883;48.202;16.310;2024-02-14T14:47:07;20.50;;;2.30;;
3735;SDS011;1883;48.202;16.310;2024-02-14T14:49:42;7.40;;;1.47;;
3735;SDS011;1883;48.202;16.310;2024-02-14T14:52:12;10.97;;;1.80;;
3735;SDS011;1883;48.202;16.310;2024-02-14T14:54:41;10.27;;;1.40;;
3735;SDS011;1883;48.202;16.310;2024-02-14T14:57:08;8.13;;;1.70;;
3735;SDS011;1883;48.202;16.310;2024-02-14T14:59:54;14.97;;;2.87;;
3735;SDS011;1883;48.202;16.310;2024-02-14T15:02:22;8.43;;;1.90;;
3735;SDS011;1883;48.202;16.310;2024-02-14T15:04:51;8.20;;;2.13;;
3735;SDS011;1883;48.202;16.310;2024-02-14T15:07:19;13.23;;;2.10;;
3735;SDS011;1883;48.202;16.310;2024-02-14T15:09:50;9.50;;;2.00;;
3735;SDS011;1883;48.202;16.310;2024-02-14T15:12:17;12.17;;;2.57;;
3735;SDS011;1883;48.202;16.310;2024-02-14T15:14:51;12.73;;;2.30;;
3735;SDS011;1883;48.202;16.310;2024-02-14T15:17:35;8.57;;;1.90;;
3735;SDS011;1883;48.202;16.310;2024-02-14T15:20:02;6.70;;;1.53;;
3735;SDS011;1883;48.202;16.310;2024-02-14T15:22:32;12.60;;;2.80;;
3735;SDS011;1883;48.202;16.310;2024-02-14T15:25:01;8.23;;;1.80;;
3735;SDS011;1883;48.202;16.310;2024-02-14T15:27:28;8.97;;;2.40;;
3735;SDS011;1883;48.202;16.310;2024-02-14T15:30:03;7.77;;;2.10;;
3735;SDS011;1883;48.202;16.310;2024-02-14T15:32:57;7.10;;;2.10;;
3735;SDS011;1883;48.202;16.310;2024-02-14T15:35:42;12.90;;;2.67;;
3735;SDS011;1883;48.202;16.310;2024-02-14T15:38:10;14.10;;;2.23;;
3735;SDS011;1883;48.202;16.310;2024-02-14T15:40:42;16.27;;;3.13;;
3735;SDS011;1883;48.202;16.310;2024-02-14T15:43:12;16.10;;;2.40;;
3735;SDS011;1883;48.202;16.310;2024-02-14T15:45:41;10.00;;;1.90;;
3735;SDS011;1883;48.202;16.310;2024-02-14T15:48:13;9.33;;;2.20;;
3735;SDS011;1883;48.202;16.310;2024-02-14T15:50:45;9.10;;;1.90;;
3735;SDS011;1883;48.202;16.310;2024-02-14T15:53:14;7.73;;;1.97;;
3735;SDS011;1883;48.202;16.310;2024-02-14T15:55:42;13.23;;;2.17;;
3735;SDS011;1883;48.202;16.310;2024-02-14T15:58:11;18.40;;;2.30;;
3735;SDS011;1883;48.202;16.310;2024-02-14T16:00:39;7.07;;;1.90;;
3735;SDS011;1883;48.202;16.310;2024-02-14T16:03:07;11.27;;;2.17;;
3735;SDS011;1883;48.202;16.310;2024-02-14T16:05:37;9.47;;;2.13;;
3735;SDS011;1883;48.202;16.310;2024-02-14T16:08:14;13.20;;;2.13;;
3735;SDS011;1883;48.202;16.310;2024-02-14T16:10:56;8.87;;;2.40;;
3735;SDS011;1883;48.202;16.310;2024-02-14T16:13:24;9.17;;;1.63;;
3735;SDS011;1883;48.202;16.310;2024-02-14T16:15:51;12.73;;;2.10;;
3735;SDS011;1883;48.202;16.310;2024-02-14T16:18:22;8.80;;;2.10;;
3735;SDS011;1883;48.202;16.310;2024-02-14T16:23:42;10.00;;;2.40;;
3735;SDS011;1883;48.202;16.310;2024-02-14T16:26:11;12.13;;;2.70;;
3735;SDS011;1883;48.202;16.310;2024-02-14T16:28:40;7.30;;;1.73;;
3735;SDS011;1883;48.202;16.310;2024-02-14T16:31:09;12.53;;;2.63;;
3735;SDS011;1883;48.202;16.310;2024-02-14T16:33:36;11.90;;;2.77;;
3735;SDS011;1883;48.202;16.310;2024-02-14T16:36:04;11.10;;;2.60;;
3735;SDS011;1883;48.202;16.310;2024-02-14T16:38:33;7.23;;;2.03;;
3735;SDS011;1883;48.202;16.310;2024-02-14T16:41:01;8.30;;;2.00;;
3735;SDS011;1883;48.202;16.310;2024-02-14T16:43:28;14.83;;;2.80;;
3735;SDS011;1883;48.202;16.310;2024-02-14T16:49:00;8.07;;;2.10;;
3735;SDS011;1883;48.202;16.310;2024-02-14T16:51:44;12.70;;;2.73;;
3735;SDS011;1883;48.202;16.310;2024-02-14T16:54:28;10.10;;;2.30;;
3735;SDS011;1883;48.202;16.310;2024-02-14T16:56:58;11.93;;;3.20;;
3735;SDS011;1883;48.202;16.310;2024-02-14T16:59:36;11.80;;;2.27;;
3735;SDS011;1883;48.202;16.310;2024-02-14T17:02:20;14.53;;;2.10;;
3735;SDS011;1883;48.202;16.310;2024-02-14T17:05:00;16.00;;;2.50;;
3735;SDS011;1883;48.202;16.310;2024-02-14T17:07:33;11.73;;;2.60;;
3735;SDS011;1883;48.202;16.310;2024-02-14T17:13:01;10.37;;;1.97;;
3735;SDS011;1883;48.202;16.310;2024-02-14T17:15:29;7.50;;;2.17;;
3735;SDS011;1883;48.202;16.310;2024-02-14T17:18:16;7.60;;;1.90;;
3735;SDS011;1883;48.202;16.310;2024-02-14T17:20:58;8.07;;;1.90;;
3735;SDS011;1883;48.202;16.310;2024-02-14T17:23:26;6.50;;;1.60;;
3735;SDS011;1883;48.202;16.310;2024-02-14T17:25:53;8.00;;;2.13;;
3735;SDS011;1883;48.202;16.310;2024-02-14T17:28:24;5.90;;;1.17;;
3735;SDS011;1883;48.202;16.310;2024-02-14T17:30:51;7.93;;;2.00;;